Weather at Nikko Heliport

Public forecast

Using degrees Celsius for public forecast. Weather courtesy of forecast.io.

Closest aviation weather report (METAR) to Nikko Heliport

Closest report is Saipan International Airport, 8.5 nm (15.7 km) SSW.

2024/05/26 10:54 (retrieved 21 minutes ago)

PGSN 261054Z 10006KT 10SM CLR 28/22 A2994 RMK AO2 SLP159 T02780217

Closest aviation forecast (TAF) to Nikko Heliport

Closest forecast is Saipan International Airport, 8.5 nm (15.7 km) SSW.

2024/05/26 06:42 (retrieved 5 hours ago)

TAF PGSN 260538Z 2606/2706 08013KT P6SM SCT025